createdAt,value
2018-11-11T00:00:48.527Z,9.55
2018-11-11T00:01:48.498Z,9.55
2018-11-11T00:02:48.525Z,9.47
2018-11-11T00:03:49.250Z,9.55
2018-11-11T00:04:49.257Z,9.56
2018-11-11T00:05:48.419Z,9.56
2018-11-11T00:06:48.354Z,9.56
2018-11-11T00:07:49.250Z,9.62
2018-11-11T00:08:48.806Z,9.57
2018-11-11T00:09:49.253Z,9.55
2018-11-11T00:10:48.244Z,9.55
2018-11-11T00:11:48.195Z,9.60
2018-11-11T00:12:48.755Z,9.60
2018-11-11T00:13:48.298Z,9.57
2018-11-11T00:14:48.754Z,9.55
2018-11-11T00:15:48.077Z,9.56
2018-11-11T00:16:48.758Z,9.60
2018-11-11T00:17:48.102Z,9.53
2018-11-11T00:18:48.764Z,9.60
2018-11-11T00:19:48.749Z,9.53
2018-11-11T00:20:48.752Z,9.63
2018-11-11T00:21:48.797Z,9.62
2018-11-11T00:22:48.309Z,9.57
2018-11-11T00:23:48.752Z,9.57
2018-11-11T00:24:47.814Z,9.59
2018-11-11T00:25:48.783Z,9.67
2018-11-11T00:26:47.762Z,9.70
2018-11-11T00:27:47.767Z,9.56
2018-11-11T00:28:47.740Z,9.62
2018-11-11T00:29:47.648Z,9.63
2018-11-11T00:30:47.621Z,9.52
2018-11-11T00:31:47.588Z,9.64
2018-11-11T00:32:47.809Z,9.56
2018-11-11T00:33:48.251Z,9.55
2018-11-11T00:34:47.501Z,9.52
2018-11-11T00:35:48.269Z,9.55
2018-11-11T00:36:47.475Z,9.57
2018-11-11T00:37:48.253Z,9.56
2018-11-11T00:38:47.811Z,9.50
2018-11-11T00:39:48.264Z,9.56
2018-11-11T00:40:47.313Z,9.55
2018-11-11T00:41:47.295Z,9.56
2018-11-11T00:42:47.316Z,9.56
2018-11-11T00:43:47.754Z,9.60
2018-11-11T00:44:47.201Z,9.59
2018-11-11T00:45:47.168Z,9.55
2018-11-11T00:46:47.332Z,9.59
2018-11-11T00:47:47.098Z,9.53
2018-11-11T00:48:47.073Z,9.62
2018-11-11T00:49:47.767Z,9.53
2018-11-11T00:50:47.757Z,9.60
2018-11-11T00:51:47.333Z,9.62
2018-11-11T00:52:46.950Z,9.63
2018-11-11T00:53:47.756Z,9.63
2018-11-11T00:54:47.756Z,9.53
2018-11-11T00:55:47.314Z,9.70
2018-11-11T00:56:46.840Z,9.66
2018-11-11T00:57:46.804Z,9.60
2018-11-11T00:58:47.336Z,9.60
2018-11-11T00:59:47.259Z,9.60
2018-11-11T01:00:46.754Z,9.66
2018-11-11T01:01:47.260Z,9.56
2018-11-11T01:02:46.642Z,9.66
2018-11-11T01:03:47.263Z,9.59
2018-11-11T01:04:46.585Z,9.64
2018-11-11T01:05:46.835Z,9.59
2018-11-11T01:06:47.259Z,9.64
2018-11-11T01:07:47.258Z,9.67
2018-11-11T01:08:47.257Z,9.60
2018-11-11T01:09:47.254Z,9.70
2018-11-11T01:10:46.813Z,9.70
2018-11-11T01:11:46.370Z,9.59
2018-11-11T01:12:46.349Z,9.59
2018-11-11T01:13:46.311Z,9.66
2018-11-11T01:14:47.253Z,9.67
2018-11-11T01:15:46.311Z,9.60
2018-11-11T01:16:46.221Z,9.59
2018-11-11T01:17:46.760Z,9.62
2018-11-11T01:18:46.759Z,9.57
2018-11-11T01:19:46.765Z,9.66
2018-11-11T01:20:46.310Z,9.53
2018-11-11T01:21:46.320Z,9.63
2018-11-11T01:22:46.313Z,9.62
2018-11-11T01:23:46.065Z,9.59
2018-11-11T01:24:45.972Z,9.64
2018-11-11T01:25:45.945Z,9.60
2018-11-11T01:26:45.920Z,9.47
2018-11-11T01:27:46.768Z,9.60
2018-11-11T01:28:46.413Z,9.60
2018-11-11T01:29:46.761Z,9.60
2018-11-11T01:30:45.794Z,9.50
2018-11-11T01:31:46.261Z,9.53
2018-11-11T01:32:45.730Z,9.60
2018-11-11T01:33:45.746Z,9.50
2018-11-11T01:34:46.261Z,9.44
2018-11-11T01:35:46.266Z,9.50
2018-11-11T01:36:45.607Z,9.50
2018-11-11T01:37:45.576Z,9.52
2018-11-11T01:38:45.818Z,9.50
2018-11-11T01:39:45.815Z,9.44
2018-11-11T01:40:45.493Z,9.42
2018-11-11T01:41:45.475Z,9.37
2018-11-11T01:42:45.433Z,9.37
2018-11-11T01:43:45.440Z,9.41
2018-11-11T01:44:46.258Z,9.34
2018-11-11T01:45:45.393Z,9.34
2018-11-11T01:46:46.265Z,9.32
2018-11-11T01:47:46.291Z,9.29
2018-11-11T01:48:45.244Z,9.38
2018-11-11T01:49:45.216Z,9.29
2018-11-11T01:50:45.343Z,9.29
2018-11-11T01:51:45.149Z,9.23
2018-11-11T01:52:45.762Z,9.23
2018-11-11T01:53:45.086Z,9.23
2018-11-11T01:54:45.766Z,9.26
2018-11-11T01:55:45.066Z,9.27
2018-11-11T01:56:45.034Z,9.23
2018-11-11T01:57:45.767Z,9.11
2018-11-11T01:58:45.777Z,9.08
2018-11-11T01:59:45.318Z,9.08
2018-11-11T02:00:44.880Z,9.05
2018-11-11T02:01:45.763Z,9.03
2018-11-11T02:02:45.769Z,9.03
2018-11-11T02:03:45.835Z,8.94
2018-11-11T02:04:44.800Z,8.98
2018-11-11T02:05:44.772Z,8.97
2018-11-11T02:06:45.268Z,8.87
2018-11-11T02:07:44.690Z,8.89
2018-11-11T02:08:44.818Z,8.79
2018-11-11T02:09:44.834Z,8.89
2018-11-11T02:10:45.266Z,8.79
2018-11-11T02:11:44.539Z,8.82
2018-11-11T02:12:45.265Z,8.77
2018-11-11T02:13:44.650Z,8.77
2018-11-11T02:14:44.819Z,8.86
2018-11-11T02:15:44.411Z,8.79
2018-11-11T02:16:44.816Z,8.77
2018-11-11T02:17:44.353Z,8.83
2018-11-11T02:18:45.267Z,8.80
2018-11-11T02:19:45.270Z,8.74
2018-11-11T02:20:44.387Z,8.71
2018-11-11T02:21:44.305Z,8.74
2018-11-11T02:22:44.767Z,8.85
2018-11-11T02:23:44.771Z,8.85
2018-11-11T02:24:44.136Z,8.82
2018-11-11T02:25:44.149Z,8.92
2018-11-11T02:26:44.111Z,8.74
2018-11-11T02:27:44.770Z,8.77
2018-11-11T02:28:44.011Z,8.76
2018-11-11T02:29:43.981Z,8.77
2018-11-11T02:30:44.327Z,8.85
2018-11-11T02:31:43.971Z,8.77
2018-11-11T02:32:44.766Z,8.89
2018-11-11T02:33:43.984Z,8.90
2018-11-11T02:34:44.772Z,8.97
2018-11-11T02:35:44.773Z,8.97
2018-11-11T02:36:43.809Z,8.97
2018-11-11T02:37:43.864Z,8.95
2018-11-11T02:38:43.838Z,9.00
2018-11-11T02:39:44.266Z,8.92
2018-11-11T02:40:44.267Z,9.05
2018-11-11T02:41:43.662Z,9.01
2018-11-11T02:42:44.267Z,8.98
2018-11-11T02:43:44.270Z,9.03
2018-11-11T02:44:44.269Z,9.01
2018-11-11T02:45:43.490Z,9.04
2018-11-11T02:46:43.496Z,9.05
2018-11-11T02:47:44.271Z,9.00
2018-11-11T02:48:43.821Z,9.05
2018-11-11T02:49:44.267Z,9.17
2018-11-11T02:50:44.277Z,9.05
2018-11-11T02:51:43.356Z,9.12
2018-11-11T02:52:43.775Z,9.03
2018-11-11T02:53:43.774Z,9.11
2018-11-11T02:54:43.335Z,9.08
2018-11-11T02:55:43.771Z,9.09
2018-11-11T02:56:43.770Z,9.09
2018-11-11T02:57:43.126Z,9.09
2018-11-11T02:58:43.326Z,9.16
2018-11-11T02:59:43.772Z,9.11
2018-11-11T03:00:43.025Z,9.16
2018-11-11T03:01:43.775Z,9.17
2018-11-11T03:02:43.773Z,9.21
2018-11-11T03:03:42.995Z,9.34
2018-11-11T03:04:43.547Z,9.26
2018-11-11T03:05:43.771Z,9.32
2018-11-11T03:06:43.777Z,9.35
2018-11-11T03:07:42.817Z,9.29
2018-11-11T03:08:43.776Z,9.29
2018-11-11T03:09:42.829Z,9.34
2018-11-11T03:10:42.725Z,9.38
2018-11-11T03:11:43.272Z,9.35
2018-11-11T03:12:42.658Z,9.41
2018-11-11T03:13:42.631Z,9.35
2018-11-11T03:14:43.696Z,9.34
2018-11-11T03:15:42.620Z,9.39
2018-11-11T03:16:42.535Z,9.34
2018-11-11T03:17:43.273Z,9.30
2018-11-11T03:18:43.274Z,9.34
2018-11-11T03:19:42.489Z,9.42
2018-11-11T03:20:43.289Z,9.39
2018-11-11T03:21:42.389Z,9.41
2018-11-11T03:22:42.412Z,9.48
2018-11-11T03:23:42.323Z,9.45
2018-11-11T03:24:42.337Z,9.48
2018-11-11T03:25:42.779Z,9.50
2018-11-11T03:26:42.774Z,9.44
2018-11-11T03:27:42.202Z,9.56
2018-11-11T03:28:42.774Z,9.60
2018-11-11T03:29:42.196Z,9.57
2018-11-11T03:30:42.115Z,9.57
2018-11-11T03:31:42.126Z,9.57
2018-11-11T03:32:42.054Z,9.57
2018-11-11T03:33:42.776Z,9.57
2018-11-11T03:34:42.774Z,9.50
2018-11-11T03:35:42.011Z,9.57
2018-11-11T03:36:42.796Z,9.66
2018-11-11T03:37:44.776Z,9.63
2018-11-11T03:38:42.780Z,9.70
2018-11-11T03:39:41.837Z,9.55
2018-11-11T03:40:41.853Z,9.62
2018-11-11T03:41:42.283Z,9.60
2018-11-11T03:42:41.746Z,9.70
2018-11-11T03:43:41.729Z,9.63
2018-11-11T03:44:42.281Z,9.64
2018-11-11T03:45:41.699Z,9.60
2018-11-11T03:46:42.279Z,9.67
2018-11-11T03:47:42.277Z,9.74
2018-11-11T03:48:41.831Z,9.63
2018-11-11T03:49:42.283Z,9.64
2018-11-11T03:50:41.552Z,9.62
2018-11-11T03:51:42.279Z,9.60
2018-11-11T03:52:41.442Z,9.66
2018-11-11T03:53:41.412Z,9.67
2018-11-11T03:54:42.280Z,9.70
2018-11-11T03:55:41.831Z,9.70
2018-11-11T03:56:42.281Z,9.57
2018-11-11T03:57:42.277Z,9.63
2018-11-11T03:58:41.328Z,9.60
2018-11-11T03:59:41.780Z,9.60
2018-11-11T04:00:41.256Z,9.57
2018-11-11T04:01:41.174Z,9.59
2018-11-11T04:02:41.783Z,9.72
2018-11-11T04:03:41.786Z,9.63
2018-11-11T04:04:41.781Z,9.63
2018-11-11T04:05:41.351Z,9.63
2018-11-11T04:06:41.014Z,9.62
2018-11-11T04:07:41.003Z,9.52
2018-11-11T04:08:41.788Z,9.55
2018-11-11T04:09:40.927Z,9.66
2018-11-11T04:10:40.958Z,9.53
2018-11-11T04:11:41.338Z,9.53
2018-11-11T04:12:41.347Z,9.59
2018-11-11T04:13:41.814Z,9.62
2018-11-11T04:14:40.773Z,9.50
2018-11-11T04:15:40.750Z,9.57
2018-11-11T04:16:41.283Z,9.48
2018-11-11T04:17:40.729Z,9.57
2018-11-11T04:18:40.653Z,9.56
2018-11-11T04:19:41.284Z,9.59
2018-11-11T04:20:40.852Z,9.59
2018-11-11T04:21:40.563Z,9.63
2018-11-11T04:22:41.282Z,9.63
2018-11-11T04:23:40.836Z,9.62
2018-11-11T04:24:41.287Z,9.59
2018-11-11T04:25:40.441Z,9.66
2018-11-11T04:26:41.287Z,9.60
2018-11-11T04:27:40.917Z,9.59
2018-11-11T04:28:40.349Z,9.59
2018-11-11T04:29:41.284Z,9.50
2018-11-11T04:30:40.287Z,9.64
2018-11-11T04:31:40.785Z,9.62
2018-11-11T04:32:40.338Z,9.63
2018-11-11T04:33:40.247Z,9.62
2018-11-11T04:34:40.172Z,9.62
2018-11-11T04:35:40.135Z,9.63
2018-11-11T04:36:40.105Z,9.60
2018-11-11T04:37:42.789Z,9.57
2018-11-11T04:38:40.087Z,9.48
2018-11-11T04:39:40.786Z,9.63
2018-11-11T04:40:39.983Z,9.63
2018-11-11T04:41:39.958Z,9.62
2018-11-11T04:42:40.784Z,9.60
2018-11-11T04:43:39.942Z,9.50
2018-11-11T04:44:40.789Z,9.70
2018-11-11T04:45:39.831Z,9.60
2018-11-11T04:46:40.788Z,9.62
2018-11-11T04:47:40.288Z,9.63
2018-11-11T04:48:39.859Z,9.62
2018-11-11T04:49:39.714Z,9.59
2018-11-11T04:50:39.681Z,9.70
2018-11-11T04:51:39.651Z,9.66
2018-11-11T04:52:40.293Z,9.71
2018-11-11T04:53:39.647Z,9.74
2018-11-11T04:54:40.288Z,9.72
2018-11-11T04:55:40.293Z,9.72
2018-11-11T04:56:39.510Z,9.66
2018-11-11T04:57:40.290Z,9.75
2018-11-11T04:58:39.837Z,9.67
2018-11-11T04:59:39.461Z,9.64
2018-11-11T05:00:39.381Z,9.66
2018-11-11T05:01:40.373Z,9.59
2018-11-11T05:02:40.297Z,9.66
2018-11-11T05:03:39.789Z,9.60
2018-11-11T05:04:39.471Z,9.64
2018-11-11T05:05:39.791Z,9.62
2018-11-11T05:06:39.788Z,9.60
2018-11-11T05:07:39.167Z,9.62
2018-11-11T05:08:39.144Z,9.64
2018-11-11T05:09:39.343Z,9.59
2018-11-11T05:10:39.344Z,9.53
2018-11-11T05:11:39.043Z,9.55
2018-11-11T05:12:39.020Z,9.64
2018-11-11T05:13:38.985Z,9.62
2018-11-11T05:14:39.337Z,9.57
2018-11-11T05:15:38.971Z,9.57
2018-11-11T05:16:39.794Z,9.63
2018-11-11T05:17:39.792Z,9.62
2018-11-11T05:18:38.837Z,9.59
2018-11-11T05:19:39.808Z,9.57
2018-11-11T05:20:38.857Z,9.56
2018-11-11T05:21:38.752Z,9.59
2018-11-11T05:22:39.293Z,9.56
2018-11-11T05:23:39.289Z,9.53
2018-11-11T05:24:38.901Z,9.50
2018-11-11T05:25:38.616Z,9.57
2018-11-11T05:26:39.301Z,9.47
2018-11-11T05:27:38.562Z,9.45
2018-11-11T05:28:39.292Z,9.48
2018-11-11T05:29:38.544Z,9.50
2018-11-11T05:30:38.465Z,9.44
2018-11-11T05:31:38.486Z,9.52
2018-11-11T05:32:39.295Z,9.48
2018-11-11T05:33:38.376Z,9.48
2018-11-11T05:34:38.346Z,9.47
2018-11-11T05:35:39.304Z,9.48
2018-11-11T05:36:38.346Z,9.52
2018-11-11T05:37:38.258Z,9.55
2018-11-11T05:38:38.224Z,9.47
2018-11-11T05:39:38.233Z,9.50
2018-11-11T05:40:38.799Z,9.50
2018-11-11T05:41:38.800Z,9.59
2018-11-11T05:42:38.802Z,9.57
2018-11-11T05:43:38.115Z,9.52
2018-11-11T05:44:38.799Z,9.53
2018-11-11T05:45:38.350Z,9.50
2018-11-11T05:46:38.795Z,9.47
2018-11-11T05:47:37.985Z,9.48
2018-11-11T05:48:38.802Z,9.47
2018-11-11T05:49:37.885Z,9.45
2018-11-11T05:50:37.861Z,9.42
2018-11-11T05:51:37.884Z,9.45
2018-11-11T05:52:37.794Z,9.44
2018-11-11T05:53:37.769Z,9.44
2018-11-11T05:54:38.297Z,9.38
2018-11-11T05:55:37.712Z,9.44
2018-11-11T05:56:37.718Z,9.35
2018-11-11T05:57:38.310Z,9.42
2018-11-11T05:58:38.300Z,9.41
2018-11-11T05:59:37.635Z,9.44
2018-11-11T06:00:38.298Z,9.37
2018-11-11T06:01:37.522Z,9.39
2018-11-11T06:02:37.854Z,9.45
2018-11-11T06:03:38.298Z,9.42
2018-11-11T06:04:37.433Z,9.48
2018-11-11T06:05:37.406Z,9.37
2018-11-11T06:06:37.369Z,9.41
2018-11-11T06:07:37.376Z,9.35
2018-11-11T06:08:38.300Z,9.42
2018-11-11T06:09:37.797Z,9.42
2018-11-11T06:10:37.798Z,9.44
2018-11-11T06:11:37.805Z,9.45
2018-11-11T06:12:37.236Z,9.50
2018-11-11T06:13:37.805Z,9.55
2018-11-11T06:14:37.352Z,9.50
2018-11-11T06:15:37.120Z,9.48
2018-11-11T06:16:37.802Z,9.50
2018-11-11T06:17:37.363Z,9.55
2018-11-11T06:18:37.006Z,9.50
2018-11-11T06:19:36.982Z,9.52
2018-11-11T06:20:36.990Z,9.45
2018-11-11T06:21:37.800Z,9.47
2018-11-11T06:22:36.902Z,9.42
2018-11-11T06:23:36.897Z,9.39
2018-11-11T06:24:36.820Z,9.38
2018-11-11T06:25:36.833Z,9.44
2018-11-11T06:26:36.803Z,9.41
2018-11-11T06:27:37.394Z,9.47
2018-11-11T06:28:36.744Z,9.48
2018-11-11T06:29:36.668Z,9.50
2018-11-11T06:30:37.304Z,9.45
2018-11-11T06:31:39.301Z,9.45
2018-11-11T06:32:37.307Z,9.42
2018-11-11T06:33:36.604Z,9.48
2018-11-11T06:34:36.522Z,9.42
2018-11-11T06:35:36.484Z,9.47
2018-11-11T06:36:36.455Z,9.48
2018-11-11T06:37:36.424Z,9.47
2018-11-11T06:38:36.436Z,9.47
2018-11-11T06:39:36.363Z,9.53
2018-11-11T06:40:36.345Z,9.48
2018-11-11T06:41:37.211Z,9.53
2018-11-11T06:42:36.804Z,9.57
2018-11-11T06:43:36.245Z,9.53
2018-11-11T06:44:36.212Z,9.48
2018-11-11T06:45:36.220Z,9.55
2018-11-11T06:46:36.155Z,9.50
2018-11-11T06:47:36.802Z,9.53
2018-11-11T06:48:36.089Z,9.48
2018-11-11T06:49:36.362Z,9.48
2018-11-11T06:50:36.074Z,9.45
2018-11-11T06:51:36.807Z,9.50
2018-11-11T06:52:36.804Z,9.53
2018-11-11T06:53:36.804Z,9.52
2018-11-11T06:54:36.358Z,9.45
2018-11-11T06:55:36.825Z,9.48
2018-11-11T06:56:35.848Z,9.44
2018-11-11T06:57:36.807Z,9.48
2018-11-11T06:58:35.834Z,9.52
2018-11-11T06:59:35.752Z,9.50
2018-11-11T07:00:35.747Z,9.47
2018-11-11T07:01:35.740Z,9.52
2018-11-11T07:02:35.666Z,9.47
2018-11-11T07:03:35.641Z,9.44
2018-11-11T07:04:36.307Z,9.55
2018-11-11T07:05:35.599Z,9.60
2018-11-11T07:06:35.597Z,9.53
2018-11-11T07:07:36.346Z,9.60
2018-11-11T07:08:36.312Z,9.47
2018-11-11T07:09:35.872Z,9.52
2018-11-11T07:10:35.421Z,9.52
2018-11-11T07:11:35.435Z,9.42
2018-11-11T07:12:35.358Z,9.56
2018-11-11T07:13:35.326Z,9.50
2018-11-11T07:14:35.301Z,9.45
2018-11-11T07:15:35.267Z,9.35
2018-11-11T07:16:35.280Z,9.39
2018-11-11T07:17:35.207Z,9.42
2018-11-11T07:18:35.176Z,9.42
2018-11-11T07:19:35.185Z,9.47
2018-11-11T07:20:35.117Z,9.45
2018-11-11T07:21:35.132Z,9.50
2018-11-11T07:22:35.056Z,9.50
2018-11-11T07:23:35.928Z,9.56
2018-11-11T07:24:35.001Z,9.42
2018-11-11T07:25:35.012Z,9.53
2018-11-11T07:26:34.935Z,9.62
2018-11-11T07:27:35.812Z,9.55
2018-11-11T07:28:35.811Z,9.45
2018-11-11T07:29:34.845Z,9.56
2018-11-11T07:30:34.856Z,9.62
2018-11-11T07:31:34.782Z,9.66
2018-11-11T07:32:34.796Z,9.64
2018-11-11T07:33:34.718Z,9.67
2018-11-11T07:34:34.688Z,9.67
2018-11-11T07:35:34.658Z,9.64
2018-11-11T07:36:34.698Z,9.67
2018-11-11T07:37:34.601Z,9.78
2018-11-11T07:38:34.568Z,9.74
2018-11-11T07:39:34.538Z,9.70
2018-11-11T07:40:34.509Z,9.90
2018-11-11T07:41:34.523Z,9.89
2018-11-11T07:42:34.571Z,9.84
2018-11-11T07:43:34.417Z,9.71
2018-11-11T07:44:34.392Z,9.70
2018-11-11T07:45:34.357Z,9.67
2018-11-11T07:46:34.346Z,9.70
2018-11-11T07:47:34.342Z,9.78
2018-11-11T07:48:34.268Z,9.78
2018-11-11T07:49:34.236Z,9.82
2018-11-11T07:50:34.211Z,9.84
2018-11-11T07:51:34.179Z,9.93
2018-11-11T07:52:34.378Z,9.98
2018-11-11T07:53:34.120Z,9.98
2018-11-11T07:54:34.108Z,9.99
2018-11-11T07:55:34.112Z,10.05
2018-11-11T07:56:34.028Z,9.99
2018-11-11T07:57:33.998Z,10.00
2018-11-11T07:58:34.054Z,10.05
2018-11-11T07:59:33.938Z,9.99
2018-11-11T08:00:33.951Z,10.10
2018-11-11T08:01:33.974Z,10.08
2018-11-11T08:02:33.856Z,9.98
2018-11-11T08:03:33.820Z,10.02
2018-11-11T08:04:33.840Z,10.00
2018-11-11T08:05:33.812Z,9.98
2018-11-11T08:06:33.728Z,9.98
2018-11-11T08:07:33.738Z,10.03
2018-11-11T08:08:33.738Z,10.11
2018-11-11T08:09:33.648Z,10.15
2018-11-11T08:10:33.670Z,10.15
2018-11-11T08:11:33.578Z,10.14
2018-11-11T08:12:33.551Z,10.21
2018-11-11T08:13:33.520Z,10.17
2018-11-11T08:14:33.492Z,10.26
2018-11-11T08:15:33.981Z,10.28
2018-11-11T08:16:33.443Z,10.31
2018-11-11T08:17:33.411Z,10.32
2018-11-11T08:18:34.330Z,10.26
2018-11-11T08:19:33.341Z,10.28
2018-11-11T08:20:33.355Z,10.31
2018-11-11T08:21:33.373Z,10.29
2018-11-11T08:22:33.257Z,10.32
2018-11-11T08:23:33.221Z,10.29
2018-11-11T08:24:33.191Z,10.35
2018-11-11T08:25:33.251Z,10.44
2018-11-11T08:26:33.233Z,10.44
2018-11-11T08:27:33.103Z,10.44
2018-11-11T08:28:33.080Z,10.55
2018-11-11T08:29:33.046Z,10.46
2018-11-11T08:30:33.020Z,10.44
2018-11-11T08:31:33.047Z,10.46
2018-11-11T08:32:33.821Z,10.52
2018-11-11T08:33:32.928Z,10.52
2018-11-11T08:34:32.904Z,10.52
2018-11-11T08:35:32.894Z,10.46
2018-11-11T08:36:33.730Z,10.44
2018-11-11T08:37:32.857Z,10.49
2018-11-11T08:38:32.825Z,10.44
2018-11-11T08:39:32.761Z,10.52
2018-11-11T08:40:32.772Z,10.57
2018-11-11T08:41:32.697Z,10.51
2018-11-11T08:42:32.663Z,10.51
2018-11-11T08:43:32.678Z,10.59
2018-11-11T08:44:32.616Z,10.52
2018-11-11T08:45:32.581Z,10.47
2018-11-11T08:46:32.569Z,10.58
2018-11-11T08:47:32.583Z,10.52
2018-11-11T08:48:32.488Z,10.51
2018-11-11T08:49:32.460Z,10.58
2018-11-11T08:50:32.429Z,10.57
2018-11-11T08:51:32.396Z,10.54
2018-11-11T08:52:32.413Z,10.55
2018-11-11T08:53:32.340Z,10.58
2018-11-11T08:54:32.312Z,10.57
2018-11-11T08:55:32.293Z,10.52
2018-11-11T08:56:32.247Z,10.49
2018-11-11T08:57:32.321Z,10.54
2018-11-11T08:58:32.190Z,10.54
2018-11-11T08:59:32.166Z,10.58
2018-11-11T09:00:32.734Z,10.63
2018-11-11T09:01:32.104Z,10.47
2018-11-11T09:02:32.115Z,10.58
2018-11-11T09:03:32.080Z,10.54
2018-11-11T09:04:32.060Z,10.66
2018-11-11T09:05:31.986Z,10.63
2018-11-11T09:06:31.958Z,10.61
2018-11-11T09:07:31.961Z,10.72
2018-11-11T09:08:31.895Z,10.69
2018-11-11T09:09:31.906Z,10.70
2018-11-11T09:10:31.885Z,10.73
2018-11-11T09:11:31.865Z,10.72
2018-11-11T09:12:32.333Z,10.70
2018-11-11T09:13:31.795Z,10.79
2018-11-11T09:14:31.723Z,10.84
2018-11-11T09:15:31.730Z,10.90
2018-11-11T09:16:31.661Z,10.94
2018-11-11T09:17:31.753Z,11.06
2018-11-11T09:18:31.605Z,11.10
2018-11-11T09:19:31.619Z,11.16
2018-11-11T09:20:31.696Z,11.20
2018-11-11T09:21:31.597Z,11.30
2018-11-11T09:22:31.500Z,11.38
2018-11-11T09:23:31.481Z,11.38
2018-11-11T09:24:31.487Z,11.38
2018-11-11T09:25:31.399Z,11.28
2018-11-11T09:26:31.371Z,11.30
2018-11-11T09:27:31.345Z,11.35
2018-11-11T09:28:31.399Z,11.33
2018-11-11T09:29:31.387Z,11.30
2018-11-11T09:30:31.402Z,11.34
2018-11-11T09:31:31.273Z,11.35
2018-11-11T09:32:31.203Z,11.43
2018-11-11T09:33:31.208Z,11.49
2018-11-11T09:34:31.138Z,11.35
2018-11-11T09:35:31.141Z,11.39
2018-11-11T09:36:31.129Z,11.31
2018-11-11T09:37:31.050Z,11.38
2018-11-11T09:38:31.027Z,11.34
2018-11-11T09:39:30.995Z,11.35
2018-11-11T09:40:30.967Z,11.51
2018-11-11T09:41:30.980Z,11.49
2018-11-11T09:42:30.958Z,11.51
2018-11-11T09:43:33.833Z,11.51
2018-11-11T09:44:30.851Z,11.57
2018-11-11T09:45:30.847Z,11.57
2018-11-11T09:46:30.841Z,11.70
2018-11-11T09:47:30.766Z,11.67
2018-11-11T09:48:30.737Z,11.66
2018-11-11T09:49:30.733Z,11.76
2018-11-11T09:50:30.691Z,11.63
2018-11-11T09:51:30.693Z,11.61
2018-11-11T09:52:30.662Z,11.63
2018-11-11T09:53:30.631Z,11.66
2018-11-11T09:54:30.606Z,11.70
2018-11-11T09:55:30.538Z,11.70
2018-11-11T09:56:30.512Z,11.64
2018-11-11T09:57:30.517Z,11.49
2018-11-11T09:58:30.534Z,11.59
2018-11-11T09:59:30.425Z,11.49
2018-11-11T10:00:30.394Z,11.49
2018-11-11T10:01:30.402Z,11.41
2018-11-11T10:02:30.334Z,11.43
2018-11-11T10:03:30.352Z,11.30
2018-11-11T10:04:30.312Z,11.27
2018-11-11T10:05:30.252Z,11.23
2018-11-11T10:06:30.404Z,11.33
2018-11-11T10:07:30.190Z,11.35
2018-11-11T10:08:32.244Z,11.43
2018-11-11T10:09:30.144Z,11.48
2018-11-11T10:10:30.107Z,11.56
2018-11-11T10:11:30.124Z,11.48
2018-11-11T10:12:30.086Z,11.49
2018-11-11T10:13:30.022Z,11.52
2018-11-11T10:14:30.068Z,11.49
2018-11-11T10:15:29.962Z,11.51
2018-11-11T10:16:29.937Z,11.52
2018-11-11T10:17:29.905Z,11.52
2018-11-11T10:18:29.922Z,11.56
2018-11-11T10:19:29.900Z,11.53
2018-11-11T10:20:30.522Z,11.52
2018-11-11T10:21:29.793Z,11.53
2018-11-11T10:22:29.765Z,11.59
2018-11-11T10:23:29.745Z,11.53
2018-11-11T10:24:29.746Z,11.49
2018-11-11T10:25:29.694Z,11.59
2018-11-11T10:26:29.693Z,11.59
2018-11-11T10:27:29.686Z,11.61
2018-11-11T10:28:29.640Z,11.53
2018-11-11T10:29:29.757Z,11.49
2018-11-11T10:30:29.593Z,11.59
2018-11-11T10:31:29.503Z,11.51
2018-11-11T10:32:29.476Z,11.48
2018-11-11T10:33:29.466Z,11.56
2018-11-11T10:34:29.424Z,11.51
2018-11-11T10:35:29.452Z,11.53
2018-11-11T10:36:29.370Z,11.45
2018-11-11T10:37:29.428Z,11.49
2018-11-11T10:38:29.305Z,11.64
2018-11-11T10:39:29.281Z,11.61
2018-11-11T10:40:29.402Z,11.61
2018-11-11T10:41:29.281Z,11.66
2018-11-11T10:42:29.233Z,11.60
2018-11-11T10:43:29.175Z,11.59
2018-11-11T10:44:29.206Z,11.61
2018-11-11T10:45:29.110Z,11.63
2018-11-11T10:46:29.120Z,11.68
2018-11-11T10:47:29.090Z,11.63
2018-11-11T10:48:29.017Z,11.66
2018-11-11T10:49:28.994Z,11.64
2018-11-11T10:50:28.964Z,11.64
2018-11-11T10:51:28.940Z,11.67
2018-11-11T10:52:28.949Z,11.67
2018-11-11T10:53:28.878Z,11.63
2018-11-11T10:54:28.941Z,11.66
2018-11-11T10:55:28.818Z,11.59
2018-11-11T10:56:29.853Z,11.56
2018-11-11T10:57:28.766Z,11.67
2018-11-11T10:58:28.819Z,11.73
2018-11-11T10:59:28.701Z,11.64
2018-11-11T11:00:29.361Z,11.60
2018-11-11T11:01:28.699Z,11.63
2018-11-11T11:02:28.617Z,11.53
2018-11-11T11:03:28.586Z,11.57
2018-11-11T11:04:29.360Z,11.57
2018-11-11T11:05:28.527Z,11.61
2018-11-11T11:06:28.603Z,11.64
2018-11-11T11:07:29.348Z,11.52
2018-11-11T11:08:28.447Z,11.52
2018-11-11T11:09:28.418Z,11.49
2018-11-11T11:10:28.394Z,11.49
2018-11-11T11:11:28.392Z,11.49
2018-11-11T11:12:28.409Z,11.52
2018-11-11T11:13:28.390Z,11.45
2018-11-11T11:14:28.272Z,11.49
2018-11-11T11:15:28.246Z,11.51
2018-11-11T11:16:28.209Z,11.48
2018-11-11T11:17:28.225Z,11.52
2018-11-11T11:18:28.158Z,11.46
2018-11-11T11:19:30.856Z,11.42
2018-11-11T11:20:28.095Z,11.43
2018-11-11T11:21:28.066Z,11.48
2018-11-11T11:22:28.242Z,11.49
2018-11-11T11:23:28.009Z,11.51
2018-11-11T11:24:27.990Z,11.49
2018-11-11T11:25:28.025Z,11.51
2018-11-11T11:26:27.922Z,11.43
2018-11-11T11:27:28.063Z,11.45
2018-11-11T11:28:27.868Z,11.45
2018-11-11T11:29:27.834Z,11.45
2018-11-11T11:30:27.808Z,11.41
2018-11-11T11:31:27.828Z,11.43
2018-11-11T11:32:27.796Z,11.46
2018-11-11T11:33:27.756Z,11.43
2018-11-11T11:34:27.688Z,11.48
2018-11-11T11:35:27.729Z,11.49
2018-11-11T11:36:27.636Z,11.46
2018-11-11T11:37:27.646Z,11.46
2018-11-11T11:38:27.642Z,11.52
2018-11-11T11:39:27.547Z,11.51
2018-11-11T11:40:27.515Z,11.46
2018-11-11T11:41:27.604Z,11.53
2018-11-11T11:42:27.460Z,11.61
2018-11-11T11:43:28.354Z,11.61
2018-11-11T11:44:27.416Z,11.57
2018-11-11T11:45:27.371Z,11.61
2018-11-11T11:46:27.342Z,11.57
2018-11-11T11:47:27.333Z,11.61
2018-11-11T11:48:27.346Z,11.53
2018-11-11T11:49:27.264Z,11.56
2018-11-11T11:50:27.262Z,11.57
2018-11-11T11:51:27.200Z,11.59
2018-11-11T11:52:27.222Z,11.64
2018-11-11T11:53:27.424Z,11.53
2018-11-11T11:54:27.113Z,11.68
2018-11-11T11:55:27.085Z,11.61
2018-11-11T11:56:27.088Z,11.68
2018-11-11T11:57:27.027Z,11.60
2018-11-11T11:58:27.065Z,11.66
2018-11-11T11:59:27.011Z,11.66
2018-11-11T12:00:26.944Z,11.70
2018-11-11T12:01:27.431Z,11.63
2018-11-11T12:02:26.909Z,11.66
2018-11-11T12:03:26.855Z,11.67
2018-11-11T12:04:26.900Z,11.68
2018-11-11T12:05:26.805Z,11.67
2018-11-11T12:06:26.824Z,11.79
2018-11-11T12:07:26.751Z,11.76
2018-11-11T12:08:26.831Z,11.82
2018-11-11T12:09:26.853Z,11.75
2018-11-11T12:10:26.662Z,11.84
2018-11-11T12:11:26.697Z,11.86
2018-11-11T12:12:26.602Z,11.76
2018-11-11T12:13:26.588Z,11.78
2018-11-11T12:14:26.584Z,11.94
2018-11-11T12:15:26.571Z,11.88
2018-11-11T12:16:26.570Z,11.88
2018-11-11T12:17:26.466Z,11.89
2018-11-11T12:18:26.452Z,11.95
2018-11-11T12:19:26.415Z,11.94
2018-11-11T12:20:26.480Z,11.86
2018-11-11T12:21:27.270Z,11.97
2018-11-11T12:22:26.317Z,11.88
2018-11-11T12:23:26.392Z,11.89
2018-11-11T12:24:26.294Z,11.91
2018-11-11T12:25:26.301Z,12.00
2018-11-11T12:26:26.203Z,11.95
2018-11-11T12:27:26.449Z,11.97
2018-11-11T12:28:26.269Z,12.04
2018-11-11T12:29:26.981Z,12.01
2018-11-11T12:30:26.138Z,12.04
2018-11-11T12:31:26.870Z,12.18
2018-11-11T12:32:26.096Z,12.22
2018-11-11T12:33:26.010Z,12.29
2018-11-11T12:34:25.969Z,12.29
2018-11-11T12:35:25.957Z,12.38
2018-11-11T12:36:25.966Z,12.45
2018-11-11T12:37:25.882Z,12.44
2018-11-11T12:38:25.877Z,12.47
2018-11-11T12:39:25.926Z,12.45
2018-11-11T12:40:25.810Z,12.44
2018-11-11T12:41:25.909Z,12.48
2018-11-11T12:42:25.801Z,12.52
2018-11-11T12:43:25.756Z,12.58
2018-11-11T12:44:25.709Z,12.62
2018-11-11T12:45:25.676Z,12.63
2018-11-11T12:46:25.706Z,12.70
2018-11-11T12:47:25.674Z,12.73
2018-11-11T12:48:25.612Z,12.83
2018-11-11T12:49:25.567Z,12.89
2018-11-11T12:50:25.648Z,12.84
2018-11-11T12:51:25.496Z,12.98
2018-11-11T12:52:25.940Z,12.98
2018-11-11T12:53:26.372Z,13.09
2018-11-11T12:54:25.428Z,13.11
2018-11-11T12:55:25.459Z,13.13
2018-11-11T12:56:25.875Z,13.24
2018-11-11T12:57:25.375Z,13.28
2018-11-11T12:58:25.362Z,13.40
2018-11-11T12:59:25.326Z,13.44
2018-11-11T13:00:25.266Z,13.45
2018-11-11T13:01:25.246Z,13.51
2018-11-11T13:02:25.887Z,13.54
2018-11-11T13:03:25.233Z,13.62
2018-11-11T13:04:25.487Z,13.62
2018-11-11T13:05:25.910Z,13.62
2018-11-11T13:06:25.879Z,13.55
2018-11-11T13:07:25.438Z,13.55
2018-11-11T13:08:25.023Z,13.58